Terminal Aerodrome Forecast
Issued by NWS Charleston, WV

Home | Current Version | Previous Version | Text Only | Print | Product List | Glossary On
Versions: 1 2 3 4 5 6 7 8 9 10 11 12 13 14 15 16 17 18 19 20 21 22 23 24 25 26
000
FTUS41 KRLX 020500 RRA
TAFHTS
TAF
KHTS 020549Z 0206/0306 00000KT P6SM BKN100
     FM020800 00000KT 5SM BR BKN120
      TEMPO 0208/0210 2SM BR SCT120
     FM021000 00000KT 1/4SM FG BKN001
     FM021200 00000KT 3SM BR BKN045
     FM021300 VRB03KT P6SM BKN060
     FM021900 04006KT P6SM BKN045 PROB30 0219/0221 3SM TSRA
      BKN060CB=

USA.gov is the U.S. government's official web portal to all federal, state and local government web resources and services.